sensor_id;sensor_type;location;lat;lon;timestamp;P1;durP1;ratioP1;P2;durP2;ratioP2
11034;SDS011;5571;48.110;-1.706;2022-08-19T00:00:05;5.97;;;2.25;;
11034;SDS011;5571;48.110;-1.706;2022-08-19T00:02:34;6.85;;;2.20;;
11034;SDS011;5571;48.110;-1.706;2022-08-19T00:05:00;2.65;;;2.03;;
11034;SDS011;5571;48.110;-1.706;2022-08-19T00:07:26;3.28;;;2.40;;
11034;SDS011;5571;48.110;-1.706;2022-08-19T00:09:51;2.70;;;1.90;;
11034;SDS011;5571;48.110;-1.706;2022-08-19T00:12:16;2.15;;;1.95;;
11034;SDS011;5571;48.110;-1.706;2022-08-19T00:14:42;2.80;;;1.90;;
11034;SDS011;5571;48.110;-1.706;2022-08-19T00:17:07;3.78;;;2.20;;
11034;SDS011;5571;48.110;-1.706;2022-08-19T00:19:34;2.20;;;1.90;;
11034;SDS011;5571;48.110;-1.706;2022-08-19T00:22:00;2.85;;;1.90;;
11034;SDS011;5571;48.110;-1.706;2022-08-19T00:24:27;2.45;;;1.70;;
11034;SDS011;5571;48.110;-1.706;2022-08-19T00:26:53;2.00;;;1.90;;
11034;SDS011;5571;48.110;-1.706;2022-08-19T00:29:22;2.72;;;2.10;;
11034;SDS011;5571;48.110;-1.706;2022-08-19T00:31:48;4.00;;;1.90;;
11034;SDS011;5571;48.110;-1.706;2022-08-19T00:34:17;4.18;;;1.88;;
11034;SDS011;5571;48.110;-1.706;2022-08-19T00:36:43;2.20;;;2.00;;
11034;SDS011;5571;48.110;-1.706;2022-08-19T00:39:10;2.65;;;1.90;;
11034;SDS011;5571;48.110;-1.706;2022-08-19T00:41:36;2.97;;;1.90;;
11034;SDS011;5571;48.110;-1.706;2022-08-19T00:44:03;2.60;;;1.98;;
11034;SDS011;5571;48.110;-1.706;2022-08-19T00:46:33;4.43;;;2.10;;
11034;SDS011;5571;48.110;-1.706;2022-08-19T00:49:02;2.05;;;1.83;;
11034;SDS011;5571;48.110;-1.706;2022-08-19T00:51:33;3.33;;;2.10;;
11034;SDS011;5571;48.110;-1.706;2022-08-19T00:53:59;2.72;;;2.20;;
11034;SDS011;5571;48.110;-1.706;2022-08-19T00:56:26;2.10;;;1.90;;
11034;SDS011;5571;48.110;-1.706;2022-08-19T00:58:52;5.03;;;2.05;;
11034;SDS011;5571;48.110;-1.706;2022-08-19T01:01:19;3.83;;;2.30;;
11034;SDS011;5571;48.110;-1.706;2022-08-19T01:03:45;3.30;;;1.88;;
11034;SDS011;5571;48.110;-1.706;2022-08-19T01:06:10;2.20;;;2.00;;
11034;SDS011;5571;48.110;-1.706;2022-08-19T01:08:36;4.97;;;2.00;;
11034;SDS011;5571;48.110;-1.706;2022-08-19T01:11:01;4.95;;;2.00;;
11034;SDS011;5571;48.110;-1.706;2022-08-19T01:13:28;2.28;;;2.08;;
11034;SDS011;5571;48.110;-1.706;2022-08-19T01:16:04;4.20;;;2.13;;
11034;SDS011;5571;48.110;-1.706;2022-08-19T01:18:40;3.50;;;1.90;;
11034;SDS011;5571;48.110;-1.706;2022-08-19T01:21:12;4.90;;;1.92;;
11034;SDS011;5571;48.110;-1.706;2022-08-19T01:24:00;2.00;;;1.90;;
11034;SDS011;5571;48.110;-1.706;2022-08-19T01:26:26;2.97;;;2.00;;
11034;SDS011;5571;48.110;-1.706;2022-08-19T01:28:53;6.00;;;2.60;;
11034;SDS011;5571;48.110;-1.706;2022-08-19T01:31:22;7.78;;;2.10;;
11034;SDS011;5571;48.110;-1.706;2022-08-19T01:33:51;4.00;;;2.25;;
11034;SDS011;5571;48.110;-1.706;2022-08-19T01:38:58;2.50;;;2.28;;
11034;SDS011;5571;48.110;-1.706;2022-08-19T01:41:24;7.03;;;2.35;;
11034;SDS011;5571;48.110;-1.706;2022-08-19T01:43:51;3.22;;;2.10;;
11034;SDS011;5571;48.110;-1.706;2022-08-19T01:46:17;4.90;;;2.45;;
11034;SDS011;5571;48.110;-1.706;2022-08-19T01:48:44;7.13;;;2.63;;
11034;SDS011;5571;48.110;-1.706;2022-08-19T01:51:11;5.38;;;2.40;;
11034;SDS011;5571;48.110;-1.706;2022-08-19T01:53:36;6.65;;;2.47;;
11034;SDS011;5571;48.110;-1.706;2022-08-19T01:56:02;7.68;;;2.45;;
11034;SDS011;5571;48.110;-1.706;2022-08-19T01:58:35;7.75;;;2.55;;
11034;SDS011;5571;48.110;-1.706;2022-08-19T02:01:04;2.92;;;2.60;;
11034;SDS011;5571;48.110;-1.706;2022-08-19T02:03:30;4.57;;;2.65;;
11034;SDS011;5571;48.110;-1.706;2022-08-19T02:05:56;6.07;;;2.53;;
11034;SDS011;5571;48.110;-1.706;2022-08-19T02:08:24;4.40;;;2.63;;
11034;SDS011;5571;48.110;-1.706;2022-08-19T02:10:54;5.38;;;2.75;;
11034;SDS011;5571;48.110;-1.706;2022-08-19T02:13:20;3.33;;;2.60;;
11034;SDS011;5571;48.110;-1.706;2022-08-19T02:15:45;3.92;;;2.45;;
11034;SDS011;5571;48.110;-1.706;2022-08-19T02:18:11;5.70;;;2.60;;
11034;SDS011;5571;48.110;-1.706;2022-08-19T02:20:36;3.47;;;2.58;;
11034;SDS011;5571;48.110;-1.706;2022-08-19T02:23:03;2.75;;;2.53;;
11034;SDS011;5571;48.110;-1.706;2022-08-19T02:25:30;5.80;;;2.70;;
11034;SDS011;5571;48.110;-1.706;2022-08-19T02:27:55;7.63;;;2.83;;
11034;SDS011;5571;48.110;-1.706;2022-08-19T02:30:20;4.30;;;2.72;;
11034;SDS011;5571;48.110;-1.706;2022-08-19T02:32:46;7.50;;;2.85;;
11034;SDS011;5571;48.110;-1.706;2022-08-19T02:35:12;5.68;;;3.03;;
11034;SDS011;5571;48.110;-1.706;2022-08-19T02:37:39;3.78;;;3.05;;
11034;SDS011;5571;48.110;-1.706;2022-08-19T02:40:24;4.75;;;2.80;;
11034;SDS011;5571;48.110;-1.706;2022-08-19T02:42:49;3.38;;;2.67;;
11034;SDS011;5571;48.110;-1.706;2022-08-19T02:45:15;4.25;;;2.53;;
11034;SDS011;5571;48.110;-1.706;2022-08-19T02:47:41;3.63;;;2.50;;
11034;SDS011;5571;48.110;-1.706;2022-08-19T02:50:07;5.97;;;2.70;;
11034;SDS011;5571;48.110;-1.706;2022-08-19T02:52:33;8.57;;;2.78;;
11034;SDS011;5571;48.110;-1.706;2022-08-19T02:54:59;4.15;;;2.33;;
11034;SDS011;5571;48.110;-1.706;2022-08-19T02:57:25;3.97;;;2.30;;
11034;SDS011;5571;48.110;-1.706;2022-08-19T02:59:52;3.17;;;2.40;;
11034;SDS011;5571;48.110;-1.706;2022-08-19T03:02:18;4.22;;;2.33;;
11034;SDS011;5571;48.110;-1.706;2022-08-19T03:04:44;4.88;;;2.67;;
11034;SDS011;5571;48.110;-1.706;2022-08-19T03:07:13;3.45;;;2.38;;
11034;SDS011;5571;48.110;-1.706;2022-08-19T03:09:40;3.90;;;2.50;;
11034;SDS011;5571;48.110;-1.706;2022-08-19T03:12:07;2.70;;;2.20;;
11034;SDS011;5571;48.110;-1.706;2022-08-19T03:14:33;3.35;;;2.50;;
11034;SDS011;5571;48.110;-1.706;2022-08-19T03:16:59;3.38;;;2.50;;
11034;SDS011;5571;48.110;-1.706;2022-08-19T03:19:24;2.60;;;2.40;;
11034;SDS011;5571;48.110;-1.706;2022-08-19T03:21:50;4.40;;;2.42;;
11034;SDS011;5571;48.110;-1.706;2022-08-19T03:24:17;2.90;;;2.25;;
11034;SDS011;5571;48.110;-1.706;2022-08-19T03:26:45;2.90;;;2.45;;
11034;SDS011;5571;48.110;-1.706;2022-08-19T03:29:12;4.68;;;2.67;;
11034;SDS011;5571;48.110;-1.706;2022-08-19T03:31:39;3.78;;;2.53;;
11034;SDS011;5571;48.110;-1.706;2022-08-19T03:34:08;4.38;;;2.40;;
11034;SDS011;5571;48.110;-1.706;2022-08-19T03:36:36;3.95;;;2.63;;
11034;SDS011;5571;48.110;-1.706;2022-08-19T03:39:02;5.80;;;2.50;;
11034;SDS011;5571;48.110;-1.706;2022-08-19T03:41:29;2.72;;;2.53;;
11034;SDS011;5571;48.110;-1.706;2022-08-19T03:43:57;2.50;;;2.38;;
11034;SDS011;5571;48.110;-1.706;2022-08-19T03:46:24;2.80;;;2.30;;
11034;SDS011;5571;48.110;-1.706;2022-08-19T03:48:55;2.80;;;2.33;;
11034;SDS011;5571;48.110;-1.706;2022-08-19T03:51:25;3.88;;;2.30;;
11034;SDS011;5571;48.110;-1.706;2022-08-19T03:54:00;3.22;;;2.55;;
11034;SDS011;5571;48.110;-1.706;2022-08-19T03:56:26;2.88;;;2.25;;
11034;SDS011;5571;48.110;-1.706;2022-08-19T03:58:56;2.42;;;2.22;;
11034;SDS011;5571;48.110;-1.706;2022-08-19T04:01:25;2.42;;;2.22;;
11034;SDS011;5571;48.110;-1.706;2022-08-19T04:03:52;3.78;;;2.65;;
11034;SDS011;5571;48.110;-1.706;2022-08-19T04:06:28;3.05;;;2.40;;
11034;SDS011;5571;48.110;-1.706;2022-08-19T04:08:56;4.28;;;2.47;;
11034;SDS011;5571;48.110;-1.706;2022-08-19T04:11:27;2.65;;;2.42;;
11034;SDS011;5571;48.110;-1.706;2022-08-19T04:13:55;2.15;;;2.03;;
11034;SDS011;5571;48.110;-1.706;2022-08-19T04:16:21;4.18;;;2.60;;
11034;SDS011;5571;48.110;-1.706;2022-08-19T04:18:49;2.80;;;2.40;;
11034;SDS011;5571;48.110;-1.706;2022-08-19T04:21:19;4.35;;;2.67;;
11034;SDS011;5571;48.110;-1.706;2022-08-19T04:23:48;2.50;;;2.30;;
11034;SDS011;5571;48.110;-1.706;2022-08-19T04:26:14;2.70;;;2.50;;
11034;SDS011;5571;48.110;-1.706;2022-08-19T04:28:41;4.40;;;2.40;;
11034;SDS011;5571;48.110;-1.706;2022-08-19T04:31:12;2.97;;;2.55;;
11034;SDS011;5571;48.110;-1.706;2022-08-19T04:33:42;3.15;;;2.30;;
11034;SDS011;5571;48.110;-1.706;2022-08-19T04:36:08;4.00;;;2.58;;
11034;SDS011;5571;48.110;-1.706;2022-08-19T04:38:35;3.00;;;2.67;;
11034;SDS011;5571;48.110;-1.706;2022-08-19T04:41:01;4.88;;;2.50;;
11034;SDS011;5571;48.110;-1.706;2022-08-19T04:43:46;3.53;;;2.67;;
11034;SDS011;5571;48.110;-1.706;2022-08-19T04:46:13;3.75;;;2.92;;
11034;SDS011;5571;48.110;-1.706;2022-08-19T04:48:39;4.80;;;2.72;;
11034;SDS011;5571;48.110;-1.706;2022-08-19T04:51:06;3.10;;;2.80;;
11034;SDS011;5571;48.110;-1.706;2022-08-19T04:53:34;2.92;;;2.72;;
11034;SDS011;5571;48.110;-1.706;2022-08-19T04:56:03;4.03;;;3.00;;
11034;SDS011;5571;48.110;-1.706;2022-08-19T04:58:31;3.08;;;2.85;;
11034;SDS011;5571;48.110;-1.706;2022-08-19T05:00:57;4.43;;;2.90;;
11034;SDS011;5571;48.110;-1.706;2022-08-19T05:03:24;3.45;;;3.15;;
11034;SDS011;5571;48.110;-1.706;2022-08-19T05:05:50;4.15;;;2.92;;
11034;SDS011;5571;48.110;-1.706;2022-08-19T05:08:17;3.55;;;3.25;;
11034;SDS011;5571;48.110;-1.706;2022-08-19T05:10:44;3.60;;;3.13;;
11034;SDS011;5571;48.110;-1.706;2022-08-19T05:13:12;3.72;;;3.42;;
11034;SDS011;5571;48.110;-1.706;2022-08-19T05:15:37;4.95;;;3.40;;
11034;SDS011;5571;48.110;-1.706;2022-08-19T05:18:02;3.50;;;3.08;;
11034;SDS011;5571;48.110;-1.706;2022-08-19T05:20:46;3.72;;;3.13;;
11034;SDS011;5571;48.110;-1.706;2022-08-19T05:23:30;6.65;;;3.42;;
11034;SDS011;5571;48.110;-1.706;2022-08-19T05:25:55;4.38;;;3.00;;
11034;SDS011;5571;48.110;-1.706;2022-08-19T05:28:21;4.03;;;3.20;;
11034;SDS011;5571;48.110;-1.706;2022-08-19T05:30:46;4.55;;;3.42;;
11034;SDS011;5571;48.110;-1.706;2022-08-19T05:33:13;4.07;;;3.67;;
11034;SDS011;5571;48.110;-1.706;2022-08-19T05:35:38;3.42;;;3.13;;
11034;SDS011;5571;48.110;-1.706;2022-08-19T05:38:05;5.45;;;3.47;;
11034;SDS011;5571;48.110;-1.706;2022-08-19T05:40:35;3.30;;;3.00;;
11034;SDS011;5571;48.110;-1.706;2022-08-19T05:43:05;3.90;;;3.47;;
11034;SDS011;5571;48.110;-1.706;2022-08-19T05:45:32;3.53;;;3.20;;
11034;SDS011;5571;48.110;-1.706;2022-08-19T05:48:02;3.65;;;2.85;;
11034;SDS011;5571;48.110;-1.706;2022-08-19T05:50:27;3.03;;;2.83;;
11034;SDS011;5571;48.110;-1.706;2022-08-19T05:52:53;3.60;;;3.30;;
11034;SDS011;5571;48.110;-1.706;2022-08-19T05:55:18;4.90;;;3.28;;
11034;SDS011;5571;48.110;-1.706;2022-08-19T05:57:45;3.53;;;2.78;;
11034;SDS011;5571;48.110;-1.706;2022-08-19T06:00:11;5.13;;;3.25;;
11034;SDS011;5571;48.110;-1.706;2022-08-19T06:02:37;3.20;;;2.90;;
11034;SDS011;5571;48.110;-1.706;2022-08-19T06:05:04;4.75;;;3.35;;
11034;SDS011;5571;48.110;-1.706;2022-08-19T06:07:33;3.60;;;3.30;;
11034;SDS011;5571;48.110;-1.706;2022-08-19T06:09:59;4.53;;;3.20;;
11034;SDS011;5571;48.110;-1.706;2022-08-19T06:12:25;3.50;;;3.20;;
11034;SDS011;5571;48.110;-1.706;2022-08-19T06:14:53;5.60;;;3.22;;
11034;SDS011;5571;48.110;-1.706;2022-08-19T06:17:19;5.78;;;3.55;;
11034;SDS011;5571;48.110;-1.706;2022-08-19T06:19:49;3.53;;;3.22;;
11034;SDS011;5571;48.110;-1.706;2022-08-19T06:22:15;4.05;;;3.25;;
11034;SDS011;5571;48.110;-1.706;2022-08-19T06:24:41;3.95;;;3.10;;
11034;SDS011;5571;48.110;-1.706;2022-08-19T06:27:06;4.05;;;3.40;;
11034;SDS011;5571;48.110;-1.706;2022-08-19T06:29:32;6.30;;;3.63;;
11034;SDS011;5571;48.110;-1.706;2022-08-19T06:31:59;4.63;;;3.90;;
11034;SDS011;5571;48.110;-1.706;2022-08-19T06:34:27;3.88;;;3.50;;
11034;SDS011;5571;48.110;-1.706;2022-08-19T06:36:54;3.92;;;3.58;;
11034;SDS011;5571;48.110;-1.706;2022-08-19T06:39:21;3.75;;;3.42;;
11034;SDS011;5571;48.110;-1.706;2022-08-19T06:41:51;4.60;;;3.33;;
11034;SDS011;5571;48.110;-1.706;2022-08-19T06:44:18;4.80;;;3.72;;
11034;SDS011;5571;48.110;-1.706;2022-08-19T06:46:45;4.00;;;3.60;;
11034;SDS011;5571;48.110;-1.706;2022-08-19T06:49:11;4.72;;;3.55;;
11034;SDS011;5571;48.110;-1.706;2022-08-19T06:51:39;5.43;;;3.72;;
11034;SDS011;5571;48.110;-1.706;2022-08-19T06:54:08;3.90;;;3.50;;
11034;SDS011;5571;48.110;-1.706;2022-08-19T06:56:34;6.60;;;3.90;;
11034;SDS011;5571;48.110;-1.706;2022-08-19T06:59:01;3.90;;;3.42;;
11034;SDS011;5571;48.110;-1.706;2022-08-19T07:01:35;4.78;;;3.60;;
11034;SDS011;5571;48.110;-1.706;2022-08-19T07:04:02;5.25;;;3.47;;
11034;SDS011;5571;48.110;-1.706;2022-08-19T07:06:28;7.90;;;3.55;;
11034;SDS011;5571;48.110;-1.706;2022-08-19T07:08:55;3.83;;;3.50;;
11034;SDS011;5571;48.110;-1.706;2022-08-19T07:11:23;7.57;;;3.80;;
11034;SDS011;5571;48.110;-1.706;2022-08-19T07:13:48;5.60;;;3.63;;
11034;SDS011;5571;48.110;-1.706;2022-08-19T07:16:15;7.53;;;3.70;;
11034;SDS011;5571;48.110;-1.706;2022-08-19T07:18:44;4.78;;;3.80;;
11034;SDS011;5571;48.110;-1.706;2022-08-19T07:21:12;5.80;;;3.83;;
11034;SDS011;5571;48.110;-1.706;2022-08-19T07:23:40;7.25;;;3.83;;
11034;SDS011;5571;48.110;-1.706;2022-08-19T07:26:10;6.10;;;4.00;;
11034;SDS011;5571;48.110;-1.706;2022-08-19T07:28:41;8.75;;;3.92;;
11034;SDS011;5571;48.110;-1.706;2022-08-19T07:31:10;5.32;;;4.18;;
11034;SDS011;5571;48.110;-1.706;2022-08-19T07:33:38;6.20;;;4.10;;
11034;SDS011;5571;48.110;-1.706;2022-08-19T07:36:05;9.13;;;4.13;;
11034;SDS011;5571;48.110;-1.706;2022-08-19T07:38:32;4.70;;;3.65;;
11034;SDS011;5571;48.110;-1.706;2022-08-19T07:40:58;6.90;;;4.20;;
11034;SDS011;5571;48.110;-1.706;2022-08-19T07:43:24;7.13;;;4.35;;
11034;SDS011;5571;48.110;-1.706;2022-08-19T07:45:51;7.00;;;4.40;;
11034;SDS011;5571;48.110;-1.706;2022-08-19T07:48:21;6.63;;;4.13;;
11034;SDS011;5571;48.110;-1.706;2022-08-19T07:50:51;10.23;;;4.43;;
11034;SDS011;5571;48.110;-1.706;2022-08-19T07:53:19;7.68;;;4.38;;
11034;SDS011;5571;48.110;-1.706;2022-08-19T07:55:44;8.15;;;4.22;;
11034;SDS011;5571;48.110;-1.706;2022-08-19T07:58:14;8.00;;;4.43;;
11034;SDS011;5571;48.110;-1.706;2022-08-19T08:00:42;7.00;;;4.03;;
11034;SDS011;5571;48.110;-1.706;2022-08-19T08:03:09;9.57;;;3.92;;
11034;SDS011;5571;48.110;-1.706;2022-08-19T08:05:35;4.50;;;3.88;;
11034;SDS011;5571;48.110;-1.706;2022-08-19T08:08:20;9.88;;;4.10;;
11034;SDS011;5571;48.110;-1.706;2022-08-19T08:11:04;6.40;;;3.85;;
11034;SDS011;5571;48.110;-1.706;2022-08-19T08:13:30;6.43;;;4.03;;
11034;SDS011;5571;48.110;-1.706;2022-08-19T08:15:56;10.25;;;4.22;;
11034;SDS011;5571;48.110;-1.706;2022-08-19T08:18:23;8.85;;;4.70;;
11034;SDS011;5571;48.110;-1.706;2022-08-19T08:20:49;6.40;;;4.10;;
11034;SDS011;5571;48.110;-1.706;2022-08-19T08:23:14;6.82;;;3.63;;
11034;SDS011;5571;48.110;-1.706;2022-08-19T08:25:55;7.60;;;3.78;;
11034;SDS011;5571;48.110;-1.706;2022-08-19T08:28:22;6.43;;;3.58;;
11034;SDS011;5571;48.110;-1.706;2022-08-19T08:30:49;7.63;;;3.53;;
11034;SDS011;5571;48.110;-1.706;2022-08-19T08:33:22;7.43;;;3.53;;
11034;SDS011;5571;48.110;-1.706;2022-08-19T08:35:49;5.68;;;3.30;;
11034;SDS011;5571;48.110;-1.706;2022-08-19T08:38:14;7.32;;;3.70;;
11034;SDS011;5571;48.110;-1.706;2022-08-19T08:43:39;9.70;;;3.80;;
11034;SDS011;5571;48.110;-1.706;2022-08-19T08:51:03;9.45;;;3.75;;
11034;SDS011;5571;48.110;-1.706;2022-08-19T08:53:35;7.50;;;3.75;;
11034;SDS011;5571;48.110;-1.706;2022-08-19T08:56:02;6.43;;;3.13;;
11034;SDS011;5571;48.110;-1.706;2022-08-19T08:58:45;7.85;;;3.30;;
11034;SDS011;5571;48.110;-1.706;2022-08-19T09:01:33;9.20;;;3.55;;
11034;SDS011;5571;48.110;-1.706;2022-08-19T09:03:59;9.38;;;3.63;;
11034;SDS011;5571;48.110;-1.706;2022-08-19T09:06:32;7.93;;;3.28;;
11034;SDS011;5571;48.110;-1.706;2022-08-19T09:09:30;5.85;;;2.88;;
11034;SDS011;5571;48.110;-1.706;2022-08-19T09:12:06;9.43;;;3.30;;
11034;SDS011;5571;48.110;-1.706;2022-08-19T09:17:11;7.32;;;3.25;;
11034;SDS011;5571;48.110;-1.706;2022-08-19T09:19:48;7.95;;;3.35;;
11034;SDS011;5571;48.110;-1.706;2022-08-19T09:22:18;8.13;;;3.60;;
11034;SDS011;5571;48.110;-1.706;2022-08-19T09:24:46;4.50;;;3.08;;
11034;SDS011;5571;48.110;-1.706;2022-08-19T09:27:13;5.85;;;2.90;;
11034;SDS011;5571;48.110;-1.706;2022-08-19T09:29:38;4.90;;;2.60;;
11034;SDS011;5571;48.110;-1.706;2022-08-19T09:32:03;7.40;;;2.90;;
11034;SDS011;5571;48.110;-1.706;2022-08-19T09:34:29;5.30;;;2.75;;
11034;SDS011;5571;48.110;-1.706;2022-08-19T09:36:54;4.90;;;2.70;;
11034;SDS011;5571;48.110;-1.706;2022-08-19T09:39:23;4.53;;;2.75;;
11034;SDS011;5571;48.110;-1.706;2022-08-19T09:41:48;4.72;;;2.78;;
11034;SDS011;5571;48.110;-1.706;2022-08-19T09:44:15;8.18;;;2.80;;
11034;SDS011;5571;48.110;-1.706;2022-08-19T09:46:40;3.55;;;2.55;;
11034;SDS011;5571;48.110;-1.706;2022-08-19T09:49:06;6.85;;;2.60;;
11034;SDS011;5571;48.110;-1.706;2022-08-19T09:51:32;5.32;;;2.78;;
11034;SDS011;5571;48.110;-1.706;2022-08-19T09:53:59;8.25;;;2.78;;
11034;SDS011;5571;48.110;-1.706;2022-08-19T09:56:26;4.32;;;2.42;;
11034;SDS011;5571;48.110;-1.706;2022-08-19T09:58:53;4.10;;;2.30;;
11034;SDS011;5571;48.110;-1.706;2022-08-19T10:01:25;4.22;;;2.38;;
11034;SDS011;5571;48.110;-1.706;2022-08-19T10:03:54;7.32;;;2.45;;
11034;SDS011;5571;48.110;-1.706;2022-08-19T10:06:22;5.85;;;2.22;;
11034;SDS011;5571;48.110;-1.706;2022-08-19T10:08:49;3.45;;;2.42;;
11034;SDS011;5571;48.110;-1.706;2022-08-19T10:11:16;5.78;;;2.75;;
11034;SDS011;5571;48.110;-1.706;2022-08-19T10:13:43;5.78;;;2.33;;
11034;SDS011;5571;48.110;-1.706;2022-08-19T10:16:13;3.05;;;2.28;;
11034;SDS011;5571;48.110;-1.706;2022-08-19T10:18:43;6.45;;;2.65;;
11034;SDS011;5571;48.110;-1.706;2022-08-19T10:21:13;8.80;;;2.78;;
11034;SDS011;5571;48.110;-1.706;2022-08-19T10:23:52;4.53;;;2.22;;
11034;SDS011;5571;48.110;-1.706;2022-08-19T10:26:21;4.05;;;2.22;;
11034;SDS011;5571;48.110;-1.706;2022-08-19T10:28:48;6.57;;;2.40;;
11034;SDS011;5571;48.110;-1.706;2022-08-19T10:31:15;2.50;;;2.10;;
11034;SDS011;5571;48.110;-1.706;2022-08-19T10:33:49;5.38;;;2.15;;
11034;SDS011;5571;48.110;-1.706;2022-08-19T10:36:20;4.90;;;1.92;;
11034;SDS011;5571;48.110;-1.706;2022-08-19T10:38:48;4.70;;;2.03;;
11034;SDS011;5571;48.110;-1.706;2022-08-19T10:41:20;3.30;;;1.95;;
11034;SDS011;5571;48.110;-1.706;2022-08-19T10:43:49;3.05;;;2.20;;
11034;SDS011;5571;48.110;-1.706;2022-08-19T10:46:17;3.65;;;2.00;;
11034;SDS011;5571;48.110;-1.706;2022-08-19T10:48:43;7.13;;;2.30;;
11034;SDS011;5571;48.110;-1.706;2022-08-19T10:51:09;5.28;;;2.25;;
11034;SDS011;5571;48.110;-1.706;2022-08-19T10:53:55;4.90;;;2.33;;
11034;SDS011;5571;48.110;-1.706;2022-08-19T10:56:21;3.80;;;2.13;;
11034;SDS011;5571;48.110;-1.706;2022-08-19T10:59:05;4.28;;;2.00;;
11034;SDS011;5571;48.110;-1.706;2022-08-19T11:01:31;4.68;;;2.30;;
11034;SDS011;5571;48.110;-1.706;2022-08-19T11:03:59;5.35;;;2.00;;
11034;SDS011;5571;48.110;-1.706;2022-08-19T11:06:30;6.07;;;1.95;;
11034;SDS011;5571;48.110;-1.706;2022-08-19T11:08:57;1.40;;;1.30;;
11034;SDS011;5571;48.110;-1.706;2022-08-19T11:11:22;3.63;;;1.73;;
11034;SDS011;5571;48.110;-1.706;2022-08-19T11:13:48;5.22;;;1.85;;
11034;SDS011;5571;48.110;-1.706;2022-08-19T11:16:23;2.78;;;1.75;;
11034;SDS011;5571;48.110;-1.706;2022-08-19T11:18:52;4.85;;;2.92;;
11034;SDS011;5571;48.110;-1.706;2022-08-19T11:21:24;2.65;;;1.85;;
11034;SDS011;5571;48.110;-1.706;2022-08-19T11:23:55;3.47;;;1.45;;
11034;SDS011;5571;48.110;-1.706;2022-08-19T11:26:22;4.20;;;1.92;;
11034;SDS011;5571;48.110;-1.706;2022-08-19T11:28:49;3.92;;;1.60;;
11034;SDS011;5571;48.110;-1.706;2022-08-19T11:31:20;2.10;;;1.45;;
11034;SDS011;5571;48.110;-1.706;2022-08-19T11:33:47;1.98;;;1.50;;
11034;SDS011;5571;48.110;-1.706;2022-08-19T11:36:16;1.52;;;1.40;;
11034;SDS011;5571;48.110;-1.706;2022-08-19T11:38:42;2.72;;;1.60;;
11034;SDS011;5571;48.110;-1.706;2022-08-19T11:41:08;2.08;;;1.40;;
11034;SDS011;5571;48.110;-1.706;2022-08-19T11:43:34;4.85;;;1.50;;
11034;SDS011;5571;48.110;-1.706;2022-08-19T11:46:03;3.40;;;1.40;;
11034;SDS011;5571;48.110;-1.706;2022-08-19T11:48:31;1.88;;;1.38;;
11034;SDS011;5571;48.110;-1.706;2022-08-19T11:50:57;1.98;;;1.40;;
11034;SDS011;5571;48.110;-1.706;2022-08-19T11:53:23;1.55;;;1.20;;
11034;SDS011;5571;48.110;-1.706;2022-08-19T11:55:49;1.35;;;1.20;;
11034;SDS011;5571;48.110;-1.706;2022-08-19T11:58:16;2.45;;;1.50;;
11034;SDS011;5571;48.110;-1.706;2022-08-19T12:00:42;4.68;;;1.25;;
11034;SDS011;5571;48.110;-1.706;2022-08-19T12:03:10;2.83;;;1.20;;
11034;SDS011;5571;48.110;-1.706;2022-08-19T12:05:36;1.73;;;1.20;;
11034;SDS011;5571;48.110;-1.706;2022-08-19T12:08:03;2.47;;;1.05;;
11034;SDS011;5571;48.110;-1.706;2022-08-19T12:10:28;4.35;;;1.30;;
11034;SDS011;5571;48.110;-1.706;2022-08-19T12:12:54;2.45;;;1.10;;
11034;SDS011;5571;48.110;-1.706;2022-08-19T12:15:19;4.78;;;1.20;;
11034;SDS011;5571;48.110;-1.706;2022-08-19T12:17:44;3.10;;;1.30;;
11034;SDS011;5571;48.110;-1.706;2022-08-19T12:20:10;5.90;;;1.95;;
11034;SDS011;5571;48.110;-1.706;2022-08-19T12:22:38;5.18;;;1.65;;
11034;SDS011;5571;48.110;-1.706;2022-08-19T12:25:06;2.90;;;1.60;;
11034;SDS011;5571;48.110;-1.706;2022-08-19T12:27:33;2.22;;;1.77;;
11034;SDS011;5571;48.110;-1.706;2022-08-19T12:30:00;2.67;;;1.63;;
11034;SDS011;5571;48.110;-1.706;2022-08-19T12:32:27;2.25;;;1.40;;
11034;SDS011;5571;48.110;-1.706;2022-08-19T12:34:52;6.63;;;1.98;;
11034;SDS011;5571;48.110;-1.706;2022-08-19T12:37:18;4.82;;;1.35;;
11034;SDS011;5571;48.110;-1.706;2022-08-19T12:39:43;3.47;;;1.35;;
11034;SDS011;5571;48.110;-1.706;2022-08-19T12:42:12;2.25;;;1.70;;
11034;SDS011;5571;48.110;-1.706;2022-08-19T12:44:39;3.42;;;1.52;;
11034;SDS011;5571;48.110;-1.706;2022-08-19T12:47:06;2.00;;;1.40;;
11034;SDS011;5571;48.110;-1.706;2022-08-19T12:49:33;3.30;;;1.70;;
11034;SDS011;5571;48.110;-1.706;2022-08-19T12:52:00;4.82;;;1.52;;
11034;SDS011;5571;48.110;-1.706;2022-08-19T12:54:26;5.07;;;1.83;;
11034;SDS011;5571;48.110;-1.706;2022-08-19T12:56:52;1.58;;;1.27;;
11034;SDS011;5571;48.110;-1.706;2022-08-19T12:59:17;2.10;;;1.40;;
11034;SDS011;5571;48.110;-1.706;2022-08-19T13:01:44;3.22;;;1.38;;
11034;SDS011;5571;48.110;-1.706;2022-08-19T13:04:10;1.98;;;1.30;;
11034;SDS011;5571;48.110;-1.706;2022-08-19T13:06:35;2.08;;;1.40;;
11034;SDS011;5571;48.110;-1.706;2022-08-19T13:09:02;2.65;;;1.40;;
11034;SDS011;5571;48.110;-1.706;2022-08-19T13:11:28;5.03;;;1.10;;
11034;SDS011;5571;48.110;-1.706;2022-08-19T13:13:57;4.68;;;1.30;;
11034;SDS011;5571;48.110;-1.706;2022-08-19T13:16:23;4.40;;;1.40;;
11034;SDS011;5571;48.110;-1.706;2022-08-19T13:18:49;1.17;;;0.90;;
11034;SDS011;5571;48.110;-1.706;2022-08-19T13:21:19;3.40;;;1.30;;
11034;SDS011;5571;48.110;-1.706;2022-08-19T13:23:47;1.67;;;1.30;;
11034;SDS011;5571;48.110;-1.706;2022-08-19T13:26:13;1.45;;;1.20;;
11034;SDS011;5571;48.110;-1.706;2022-08-19T13:28:39;1.52;;;1.30;;
11034;SDS011;5571;48.110;-1.706;2022-08-19T13:31:25;1.67;;;1.10;;
11034;SDS011;5571;48.110;-1.706;2022-08-19T13:34:11;1.75;;;1.20;;
11034;SDS011;5571;48.110;-1.706;2022-08-19T13:36:37;3.13;;;1.27;;
11034;SDS011;5571;48.110;-1.706;2022-08-19T13:39:03;4.07;;;1.80;;
11034;SDS011;5571;48.110;-1.706;2022-08-19T13:41:29;4.75;;;1.58;;
11034;SDS011;5571;48.110;-1.706;2022-08-19T13:43:55;2.22;;;1.38;;
11034;SDS011;5571;48.110;-1.706;2022-08-19T13:46:21;4.05;;;1.38;;
11034;SDS011;5571;48.110;-1.706;2022-08-19T13:48:47;2.58;;;1.27;;
11034;SDS011;5571;48.110;-1.706;2022-08-19T13:51:13;1.85;;;1.20;;
11034;SDS011;5571;48.110;-1.706;2022-08-19T13:53:41;3.35;;;0.60;;
11034;SDS011;5571;48.110;-1.706;2022-08-19T13:56:08;1.27;;;0.63;;
11034;SDS011;5571;48.110;-1.706;2022-08-19T13:58:35;3.55;;;0.63;;
11034;SDS011;5571;48.110;-1.706;2022-08-19T14:01:01;0.93;;;0.35;;
11034;SDS011;5571;48.110;-1.706;2022-08-19T14:03:26;2.03;;;0.32;;
11034;SDS011;5571;48.110;-1.706;2022-08-19T14:05:52;7.00;;;1.70;;
11034;SDS011;5571;48.110;-1.706;2022-08-19T14:08:18;4.95;;;3.17;;
11034;SDS011;5571;48.110;-1.706;2022-08-19T14:10:44;9.93;;;7.55;;
11034;SDS011;5571;48.110;-1.706;2022-08-19T14:13:12;3.42;;;0.35;;
11034;SDS011;5571;48.110;-1.706;2022-08-19T14:15:39;0.20;;;0.20;;
11034;SDS011;5571;48.110;-1.706;2022-08-19T14:18:05;2.42;;;0.45;;
11034;SDS011;5571;48.110;-1.706;2022-08-19T14:20:30;0.75;;;0.60;;
11034;SDS011;5571;48.110;-1.706;2022-08-19T14:22:59;0.88;;;0.30;;
11034;SDS011;5571;48.110;-1.706;2022-08-19T14:25:26;2.28;;;0.70;;
11034;SDS011;5571;48.110;-1.706;2022-08-19T14:27:54;1.85;;;0.22;;
11034;SDS011;5571;48.110;-1.706;2022-08-19T14:30:21;1.23;;;0.35;;
11034;SDS011;5571;48.110;-1.706;2022-08-19T14:32:53;0.75;;;0.50;;
11034;SDS011;5571;48.110;-1.706;2022-08-19T14:35:20;2.42;;;0.43;;
11034;SDS011;5571;48.110;-1.706;2022-08-19T14:37:47;1.25;;;1.15;;
11034;SDS011;5571;48.110;-1.706;2022-08-19T14:40:14;1.05;;;0.70;;
11034;SDS011;5571;48.110;-1.706;2022-08-19T14:42:41;1.83;;;0.95;;
11034;SDS011;5571;48.110;-1.706;2022-08-19T14:45:07;1.17;;;0.70;;
11034;SDS011;5571;48.110;-1.706;2022-08-19T14:47:34;1.27;;;1.10;;
11034;SDS011;5571;48.110;-1.706;2022-08-19T14:49:59;1.20;;;0.30;;
11034;SDS011;5571;48.110;-1.706;2022-08-19T14:52:24;0.75;;;0.40;;
11034;SDS011;5571;48.110;-1.706;2022-08-19T14:54:50;0.98;;;0.30;;
11034;SDS011;5571;48.110;-1.706;2022-08-19T14:57:16;1.48;;;0.55;;
11034;SDS011;5571;48.110;-1.706;2022-08-19T14:59:42;6.32;;;3.85;;
11034;SDS011;5571;48.110;-1.706;2022-08-19T15:02:08;4.78;;;1.23;;
11034;SDS011;5571;48.110;-1.706;2022-08-19T15:04:34;2.38;;;0.40;;